createdAt,value
2022-10-23T00:01:44.695Z,44.35
2022-10-23T00:04:17.567Z,47.05
2022-10-23T00:06:45.998Z,46.33
2022-10-23T00:09:17.779Z,41.88
2022-10-23T00:11:50.251Z,37.42
2022-10-23T00:14:21.773Z,43.28
2022-10-23T00:16:49.007Z,40.38
2022-10-23T00:19:16.421Z,41.28
2022-10-23T00:21:43.686Z,39.65
2022-10-23T00:24:11.348Z,41.72
2022-10-23T00:26:40.640Z,37.88
2022-10-23T00:29:10.040Z,39.53
2022-10-23T00:31:38.632Z,42.60
2022-10-23T00:34:08.558Z,47.00
2022-10-23T00:36:37.776Z,46.95
2022-10-23T00:39:06.122Z,50.15
2022-10-23T00:41:33.686Z,50.90
2022-10-23T00:44:29.970Z,48.65
2022-10-23T00:46:59.049Z,47.53
2022-10-23T00:49:28.335Z,43.22
2022-10-23T00:52:05.047Z,43.30
2022-10-23T00:54:39.988Z,41.50
2022-10-23T00:57:12.694Z,39.13
2022-10-23T00:59:40.544Z,38.95
2022-10-23T01:02:08.166Z,45.50
2022-10-23T01:04:36.436Z,46.47
2022-10-23T01:07:33.255Z,47.30
2022-10-23T01:10:15.462Z,47.38
2022-10-23T01:12:56.883Z,43.92
2022-10-23T01:15:37.927Z,39.95
2022-10-23T01:18:37.294Z,41.83
2022-10-23T01:21:30.704Z,44.55
2022-10-23T01:24:09.237Z,46.72
2022-10-23T01:27:09.843Z,43.85
2022-10-23T01:30:01.578Z,45.78
2022-10-23T01:32:42.909Z,52.20
2022-10-23T01:35:24.286Z,46.88
2022-10-23T01:38:09.118Z,47.95
2022-10-23T01:41:02.178Z,42.15
2022-10-23T01:44:00.105Z,44.15
2022-10-23T01:46:28.884Z,42.67
2022-10-23T01:48:59.833Z,45.70
2022-10-23T01:51:31.993Z,42.53
2022-10-23T01:54:01.500Z,45.85
2022-10-23T01:56:35.924Z,45.08
2022-10-23T01:59:10.680Z,47.72
2022-10-23T02:01:44.370Z,39.00
2022-10-23T02:04:18.570Z,45.42
2022-10-23T02:06:45.961Z,44.95
2022-10-23T02:09:13.412Z,42.30
2022-10-23T02:11:54.928Z,46.55
2022-10-23T02:14:56.837Z,39.08
2022-10-23T02:17:49.223Z,42.00
2022-10-23T02:20:28.129Z,41.00
2022-10-23T02:23:19.123Z,39.72
2022-10-23T02:26:12.890Z,38.88
2022-10-23T02:28:51.943Z,42.45
2022-10-23T02:31:23.671Z,43.15
2022-10-23T02:33:50.923Z,45.45
2022-10-23T02:36:19.686Z,47.58
2022-10-23T02:38:47.004Z,44.88
2022-10-23T02:41:17.615Z,43.75
2022-10-23T02:44:50.543Z,42.25
2022-10-23T02:47:26.404Z,42.90
2022-10-23T02:50:33.262Z,43.60
2022-10-23T02:53:35.928Z,38.72
2022-10-23T02:56:36.658Z,37.90
2022-10-23T02:59:24.768Z,42.25
2022-10-23T03:02:02.595Z,43.13
2022-10-23T03:04:32.868Z,38.25
2022-10-23T03:07:00.458Z,37.70
2022-10-23T03:09:27.966Z,41.58
2022-10-23T03:11:55.475Z,39.10
2022-10-23T03:14:22.695Z,44.88
2022-10-23T03:16:50.111Z,43.72
2022-10-23T03:19:17.311Z,44.20
2022-10-23T03:21:44.655Z,42.35
2022-10-23T03:24:11.846Z,48.35
2022-10-23T03:26:39.240Z,49.13
2022-10-23T03:29:06.751Z,45.28
2022-10-23T03:31:34.125Z,44.63
2022-10-23T03:34:04.040Z,40.95
2022-10-23T03:36:33.679Z,49.80
2022-10-23T03:39:00.939Z,51.33
2022-10-23T03:41:28.511Z,48.50
2022-10-23T03:43:55.752Z,56.40
2022-10-23T03:46:23.590Z,50.80
2022-10-23T03:48:50.730Z,51.80
2022-10-23T03:51:18.161Z,55.47
2022-10-23T03:53:45.363Z,50.05
2022-10-23T03:56:12.722Z,51.70
2022-10-23T03:58:39.959Z,50.00
2022-10-23T04:01:07.538Z,50.47
2022-10-23T04:03:34.865Z,51.65
2022-10-23T04:06:02.283Z,62.22
2022-10-23T04:08:29.462Z,62.85
2022-10-23T04:10:57.155Z,52.80
2022-10-23T04:13:24.353Z,55.60
2022-10-23T04:15:53.761Z,55.60
2022-10-23T04:18:20.977Z,64.25
2022-10-23T04:20:50.867Z,57.47
2022-10-23T04:23:18.741Z,67.00
2022-10-23T04:28:15.257Z,66.93
2022-10-23T04:30:42.711Z,60.95
2022-10-23T04:33:09.910Z,57.15
2022-10-23T04:35:37.357Z,60.50
2022-10-23T04:38:04.615Z,57.17
2022-10-23T04:40:32.058Z,58.70
2022-10-23T04:42:59.315Z,50.33
2022-10-23T04:45:27.091Z,56.38
2022-10-23T04:47:54.350Z,55.17
2022-10-23T04:50:22.196Z,54.55
2022-10-23T04:52:53.547Z,57.35
2022-10-23T04:55:21.119Z,61.47
2022-10-23T04:57:48.782Z,60.60
2022-10-23T05:00:16.379Z,58.72
2022-10-23T05:02:44.375Z,59.55
2022-10-23T05:05:12.021Z,63.63
2022-10-23T05:07:39.727Z,62.28
2022-10-23T05:10:07.963Z,55.97
2022-10-23T05:12:35.137Z,61.72
2022-10-23T05:15:02.549Z,60.92
2022-10-23T05:17:40.392Z,63.70
2022-10-23T05:20:15.514Z,49.78
2022-10-23T05:22:46.311Z,54.22
2022-10-23T05:25:13.983Z,52.47
2022-10-23T05:27:41.450Z,48.33
2022-10-23T05:30:10.568Z,50.50
2022-10-23T05:32:39.088Z,56.78
2022-10-23T05:35:16.787Z,55.75
2022-10-23T05:37:48.119Z,53.13
2022-10-23T05:40:15.996Z,54.78
2022-10-23T05:42:43.519Z,54.17
2022-10-23T05:45:11.991Z,56.67
2022-10-23T05:47:39.212Z,50.38
2022-10-23T05:50:07.284Z,62.30
2022-10-23T05:52:34.535Z,57.13
2022-10-23T05:55:02.004Z,55.72
2022-10-23T05:57:33.057Z,58.33
2022-10-23T06:00:00.641Z,59.67
2022-10-23T06:02:28.064Z,57.95
2022-10-23T06:04:55.279Z,63.00
2022-10-23T06:07:31.275Z,64.50
2022-10-23T06:10:00.927Z,58.55
2022-10-23T06:12:28.369Z,64.43
2022-10-23T06:14:55.647Z,60.20
2022-10-23T06:17:23.007Z,65.85
2022-10-23T06:19:50.199Z,65.70
2022-10-23T06:22:17.586Z,53.30
2022-10-23T06:24:44.807Z,52.47
2022-10-23T06:27:12.154Z,59.85
2022-10-23T06:29:39.499Z,58.42
2022-10-23T06:32:07.044Z,52.88
2022-10-23T06:34:34.393Z,70.47
2022-10-23T06:37:02.025Z,54.10
2022-10-23T06:39:31.976Z,58.90
2022-10-23T06:41:59.832Z,55.47
2022-10-23T06:44:26.981Z,52.67
2022-10-23T06:46:54.370Z,55.70
2022-10-23T06:49:21.525Z,48.58
2022-10-23T06:51:48.963Z,47.53
2022-10-23T06:54:16.137Z,43.95
2022-10-23T06:56:43.325Z,41.42
2022-10-23T06:59:10.670Z,42.25
2022-10-23T07:01:38.473Z,40.28
2022-10-23T07:04:06.056Z,43.22
2022-10-23T07:06:33.237Z,39.63
2022-10-23T07:09:00.673Z,49.63
2022-10-23T07:11:27.902Z,46.90
2022-10-23T07:13:55.400Z,44.83
2022-10-23T07:16:23.977Z,41.53
2022-10-23T07:19:01.306Z,44.08
2022-10-23T07:21:37.282Z,39.65
2022-10-23T07:24:05.177Z,41.80
2022-10-23T07:26:32.976Z,36.50
2022-10-23T07:29:00.362Z,35.63
2022-10-23T07:31:28.495Z,32.55
2022-10-23T07:33:56.207Z,32.60
2022-10-23T07:36:23.849Z,31.67
2022-10-23T07:38:52.379Z,35.83
2022-10-23T07:41:19.891Z,28.20
2022-10-23T07:43:47.402Z,29.48
2022-10-23T07:46:14.751Z,28.23
2022-10-23T07:48:42.410Z,30.63
2022-10-23T07:51:14.696Z,30.67
2022-10-23T07:53:44.624Z,32.53
2022-10-23T07:56:22.385Z,26.15
2022-10-23T07:58:53.840Z,27.55
2022-10-23T08:01:37.182Z,29.52
2022-10-23T08:04:05.610Z,29.35
2022-10-23T08:06:35.393Z,29.83
2022-10-23T08:09:06.507Z,29.02
2022-10-23T08:11:37.553Z,29.58
2022-10-23T08:14:06.877Z,30.67
2022-10-23T08:16:37.728Z,28.02
2022-10-23T08:19:07.977Z,31.42
2022-10-23T08:21:35.289Z,33.80
2022-10-23T08:24:02.687Z,30.60
2022-10-23T08:26:30.004Z,28.85
2022-10-23T08:28:59.863Z,32.90
2022-10-23T08:31:27.239Z,33.10
2022-10-23T08:33:54.709Z,30.30
2022-10-23T08:36:28.146Z,32.08
2022-10-23T08:38:58.070Z,34.95
2022-10-23T08:41:31.182Z,34.33
2022-10-23T08:44:55.882Z,32.65
2022-10-23T08:47:53.326Z,36.53
2022-10-23T08:50:26.685Z,31.25
2022-10-23T08:53:25.448Z,32.95
2022-10-23T08:56:04.671Z,31.73
2022-10-23T08:58:46.913Z,32.45
2022-10-23T09:07:20.683Z,32.33
2022-10-23T09:10:42.799Z,30.95
2022-10-23T09:13:48.296Z,31.50
2022-10-23T09:16:30.300Z,32.30
2022-10-23T09:18:58.592Z,32.03
2022-10-23T09:21:29.688Z,37.72
2022-10-23T09:23:57.289Z,48.78
2022-10-23T09:26:24.752Z,41.50
2022-10-23T09:29:02.827Z,40.67
2022-10-23T09:31:30.226Z,38.35
2022-10-23T09:34:01.451Z,41.30
2022-10-23T09:36:29.876Z,35.22
2022-10-23T09:38:59.966Z,34.58
2022-10-23T09:41:31.574Z,35.85
2022-10-23T09:44:04.469Z,34.58
2022-10-23T09:46:47.856Z,35.60
2022-10-23T09:49:35.371Z,31.60
2022-10-23T09:52:35.136Z,31.67
2022-10-23T09:55:19.904Z,31.02
2022-10-23T09:57:48.150Z,27.75
2022-10-23T10:00:25.257Z,28.38
2022-10-23T10:03:06.351Z,25.33
2022-10-23T10:05:41.483Z,20.98
2022-10-23T10:08:28.547Z,23.02
2022-10-23T10:11:06.863Z,23.15
2022-10-23T10:13:34.223Z,21.10
2022-10-23T10:16:27.444Z,19.98
2022-10-23T10:19:20.663Z,17.27
2022-10-23T10:22:08.867Z,18.35
2022-10-23T10:25:02.962Z,16.58
2022-10-23T10:28:12.658Z,17.42
2022-10-23T10:31:30.645Z,14.07
2022-10-23T10:34:07.125Z,13.20
2022-10-23T10:37:29.596Z,15.30
2022-10-23T10:40:23.658Z,11.18
2022-10-23T10:43:38.354Z,11.95
2022-10-23T10:46:23.251Z,8.65
2022-10-23T10:49:26.907Z,11.77
2022-10-23T10:52:03.166Z,9.82
2022-10-23T10:54:53.642Z,9.98
2022-10-23T10:57:37.146Z,9.52
2022-10-23T11:00:18.277Z,7.55
2022-10-23T11:02:49.833Z,8.13
2022-10-23T11:05:35.033Z,6.88
2022-10-23T11:08:22.344Z,7.90
2022-10-23T11:11:00.485Z,7.03
2022-10-23T11:13:43.071Z,6.80
2022-10-23T11:16:20.237Z,8.57
2022-10-23T11:19:17.733Z,7.13
2022-10-23T11:22:20.823Z,7.03
2022-10-23T11:24:57.245Z,6.43
2022-10-23T11:27:34.476Z,5.32
2022-10-23T11:30:08.720Z,6.07
2022-10-23T11:33:12.954Z,7.13
2022-10-23T11:35:54.483Z,8.02
2022-10-23T11:38:30.053Z,6.53
2022-10-23T11:41:19.874Z,5.53
2022-10-23T11:44:01.572Z,7.72
2022-10-23T11:46:38.778Z,6.57
2022-10-23T11:49:21.274Z,5.38
2022-10-23T11:52:03.042Z,6.07
2022-10-23T11:54:30.623Z,9.02
2022-10-23T11:57:17.699Z,8.20
2022-10-23T11:59:48.195Z,8.35
2022-10-23T12:02:33.116Z,6.95
2022-10-23T12:05:08.780Z,7.65
2022-10-23T12:07:41.972Z,6.38
2022-10-23T12:10:30.062Z,7.60
2022-10-23T12:13:00.043Z,7.78
2022-10-23T12:15:28.730Z,9.60
2022-10-23T12:18:17.099Z,11.38
2022-10-23T12:20:53.402Z,7.03
2022-10-23T12:23:38.771Z,6.65
2022-10-23T12:26:33.594Z,5.80
2022-10-23T12:30:01.867Z,5.43
2022-10-23T12:32:54.399Z,5.35
2022-10-23T12:35:59.079Z,6.63
2022-10-23T12:38:33.851Z,5.72
2022-10-23T12:41:26.143Z,5.57
2022-10-23T12:44:05.717Z,5.47
2022-10-23T12:47:04.423Z,6.50
2022-10-23T12:49:34.231Z,7.05
2022-10-23T12:52:05.897Z,6.78
2022-10-23T12:54:39.435Z,8.55
2022-10-23T12:57:30.362Z,7.90
2022-10-23T13:00:04.612Z,7.55
2022-10-23T13:02:34.395Z,6.68
2022-10-23T13:05:07.445Z,7.32
2022-10-23T13:07:42.731Z,6.72
2022-10-23T13:10:23.781Z,12.15
2022-10-23T13:13:04.788Z,10.63
2022-10-23T13:15:44.916Z,7.30
2022-10-23T13:18:15.589Z,3.95
2022-10-23T13:21:03.470Z,5.32
2022-10-23T13:23:34.983Z,4.40
2022-10-23T13:26:07.043Z,5.82
2022-10-23T13:28:52.647Z,3.90
2022-10-23T13:31:33.665Z,3.75
2022-10-23T13:34:00.799Z,4.30
2022-10-23T13:36:37.107Z,6.05
2022-10-23T13:39:10.510Z,5.28
2022-10-23T13:41:44.995Z,4.45
2022-10-23T13:44:18.963Z,4.15
2022-10-23T13:46:48.399Z,4.25
2022-10-23T13:49:16.744Z,5.53
2022-10-23T13:51:54.459Z,6.72
2022-10-23T13:57:00.376Z,5.10
2022-10-23T13:59:27.678Z,6.43
2022-10-23T14:01:55.340Z,5.05
2022-10-23T14:04:23.750Z,4.00
2022-10-23T14:06:54.835Z,6.72
2022-10-23T14:09:22.072Z,5.68
2022-10-23T14:11:49.562Z,6.43
2022-10-23T14:14:16.784Z,4.55
2022-10-23T14:16:44.187Z,4.70
2022-10-23T14:19:11.879Z,5.38
2022-10-23T14:21:39.309Z,4.05
2022-10-23T14:24:06.928Z,6.25
2022-10-23T14:26:34.414Z,5.63
2022-10-23T14:29:05.153Z,4.45
2022-10-23T14:31:37.308Z,6.07
2022-10-23T14:34:04.569Z,7.32
2022-10-23T14:36:38.874Z,5.20
2022-10-23T14:39:17.649Z,4.57
2022-10-23T14:41:45.234Z,5.20
2022-10-23T14:44:12.489Z,4.47
2022-10-23T14:46:39.904Z,7.68
2022-10-23T14:49:07.117Z,6.72
2022-10-23T14:51:34.644Z,7.40
2022-10-23T14:54:05.512Z,7.45
2022-10-23T14:56:37.802Z,6.40
2022-10-23T14:59:05.712Z,6.85
2022-10-23T15:01:43.494Z,6.22
2022-10-23T15:04:14.832Z,7.72
2022-10-23T15:06:44.266Z,8.45
2022-10-23T15:09:11.617Z,20.60
2022-10-23T15:11:39.229Z,14.40
2022-10-23T15:14:07.425Z,9.45
2022-10-23T15:16:41.400Z,9.60
2022-10-23T15:19:15.170Z,7.60
2022-10-23T15:21:48.056Z,8.23
2022-10-23T15:24:17.374Z,15.10
2022-10-23T15:26:45.335Z,10.50
2022-10-23T15:29:14.834Z,8.07
2022-10-23T15:32:01.991Z,8.60
2022-10-23T15:34:30.488Z,8.73
2022-10-23T15:36:58.906Z,8.20
2022-10-23T15:39:33.696Z,8.65
2022-10-23T15:42:03.616Z,8.98
2022-10-23T15:44:33.618Z,10.43
2022-10-23T15:47:01.231Z,10.20
2022-10-23T15:49:30.091Z,11.10
2022-10-23T15:51:57.933Z,12.35
2022-10-23T15:54:28.121Z,12.50
2022-10-23T15:56:58.255Z,14.23
2022-10-23T15:59:26.497Z,14.90
2022-10-23T16:01:54.178Z,13.95
2022-10-23T16:04:22.143Z,13.45
2022-10-23T16:06:49.921Z,12.63
2022-10-23T16:09:17.609Z,13.02
2022-10-23T16:11:45.443Z,14.02
2022-10-23T16:14:17.246Z,15.02
2022-10-23T16:16:44.792Z,18.40
2022-10-23T16:19:12.861Z,16.13
2022-10-23T16:21:41.930Z,14.65
2022-10-23T16:24:10.226Z,14.75
2022-10-23T16:26:38.489Z,12.90
2022-10-23T16:29:08.569Z,14.80
2022-10-23T16:31:36.372Z,15.05
2022-10-23T16:34:05.588Z,12.52
2022-10-23T16:36:34.120Z,12.52
2022-10-23T16:39:03.681Z,10.82
2022-10-23T16:41:32.338Z,12.50
2022-10-23T16:43:59.986Z,15.65
2022-10-23T16:46:28.087Z,20.00
2022-10-23T16:48:55.411Z,19.30
2022-10-23T16:51:26.174Z,16.88
2022-10-23T16:53:54.046Z,15.90
2022-10-23T16:56:25.294Z,16.80
2022-10-23T16:58:52.692Z,19.35
2022-10-23T17:01:32.985Z,16.10
2022-10-23T17:04:01.415Z,14.57
2022-10-23T17:06:32.424Z,22.25
2022-10-23T17:09:02.022Z,18.77
2022-10-23T17:11:37.050Z,16.90
2022-10-23T17:14:08.030Z,17.40
2022-10-23T17:16:37.809Z,20.20
2022-10-23T17:19:15.929Z,19.60
2022-10-23T17:21:56.184Z,20.25
2022-10-23T17:24:24.802Z,25.00
2022-10-23T17:26:54.062Z,27.92
2022-10-23T17:29:21.720Z,26.35
2022-10-23T17:31:50.865Z,22.38
2022-10-23T17:34:22.995Z,20.75
2022-10-23T17:36:53.575Z,22.45
2022-10-23T17:39:25.656Z,26.60
2022-10-23T17:41:54.266Z,30.02
2022-10-23T17:44:22.603Z,24.45
2022-10-23T17:46:53.674Z,24.73
2022-10-23T17:49:22.442Z,21.23
2022-10-23T17:51:58.241Z,19.55
2022-10-23T17:54:27.295Z,18.48
2022-10-23T17:56:56.508Z,15.18
2022-10-23T17:59:23.965Z,15.52
2022-10-23T18:01:51.729Z,17.35
2022-10-23T18:04:20.475Z,20.25
2022-10-23T18:06:52.720Z,21.92
2022-10-23T18:09:22.003Z,26.42
2022-10-23T18:11:50.384Z,31.77
2022-10-23T18:14:21.480Z,32.03
2022-10-23T18:16:50.876Z,30.23
2022-10-23T18:19:19.677Z,29.95
2022-10-23T18:21:48.302Z,25.75
2022-10-23T18:24:16.677Z,21.85
2022-10-23T18:26:44.752Z,22.92
2022-10-23T18:29:13.798Z,22.60
2022-10-23T18:31:42.401Z,22.30
2022-10-23T18:34:23.799Z,21.73
2022-10-23T18:36:54.399Z,27.58
2022-10-23T18:39:25.312Z,25.70
2022-10-23T18:41:57.044Z,20.42
2022-10-23T18:44:29.115Z,22.50
2022-10-23T18:46:59.300Z,18.73
2022-10-23T18:49:27.076Z,18.45
2022-10-23T18:51:54.977Z,19.00
2022-10-23T18:54:22.963Z,18.05
2022-10-23T18:56:51.002Z,18.48
2022-10-23T18:59:20.684Z,17.08
2022-10-23T19:01:49.826Z,16.55
2022-10-23T19:04:18.509Z,16.48
2022-10-23T19:06:48.770Z,15.68
2022-10-23T19:09:16.600Z,20.00
2022-10-23T19:11:45.604Z,17.40
2022-10-23T19:14:13.492Z,16.23
2022-10-23T19:17:00.426Z,16.13
2022-10-23T19:19:35.908Z,18.63
2022-10-23T19:22:04.908Z,19.92
2022-10-23T19:24:43.862Z,15.98
2022-10-23T19:27:11.861Z,18.10
2022-10-23T19:29:45.134Z,18.63
2022-10-23T19:32:13.043Z,23.73
2022-10-23T19:34:40.870Z,21.00
2022-10-23T19:37:08.461Z,21.80
2022-10-23T19:39:35.942Z,21.35
2022-10-23T19:42:03.470Z,38.83
2022-10-23T19:44:31.516Z,45.38
2022-10-23T19:46:58.953Z,50.80
2022-10-23T19:49:26.236Z,59.25
2022-10-23T19:51:53.779Z,70.80
2022-10-23T19:54:21.833Z,69.20
2022-10-23T19:56:50.247Z,56.78
2022-10-23T19:59:18.309Z,54.65
2022-10-23T20:01:48.111Z,57.67
2022-10-23T20:04:19.823Z,69.55
2022-10-23T20:06:48.152Z,41.58
2022-10-23T20:09:15.778Z,33.22
2022-10-23T20:11:45.301Z,33.28
2022-10-23T20:14:13.698Z,27.77
2022-10-23T20:16:44.895Z,30.05
2022-10-23T20:21:49.439Z,30.08
2022-10-23T20:24:19.147Z,35.40
2022-10-23T20:26:52.291Z,31.98
2022-10-23T20:29:20.950Z,31.77
2022-10-23T20:31:48.684Z,31.17
2022-10-23T20:34:16.081Z,29.13
2022-10-23T20:36:47.408Z,34.17
2022-10-23T20:39:19.354Z,30.30
2022-10-23T20:41:47.370Z,26.83
2022-10-23T20:46:50.834Z,33.30
2022-10-23T20:49:19.623Z,31.83
2022-10-23T20:51:54.999Z,33.00
2022-10-23T20:54:28.766Z,34.05
2022-10-23T20:56:57.190Z,33.20
2022-10-23T20:59:25.457Z,37.53
2022-10-23T21:01:55.366Z,35.15
2022-10-23T21:04:27.476Z,34.70
2022-10-23T21:07:09.441Z,38.15
2022-10-23T21:09:39.287Z,36.55
2022-10-23T21:12:07.935Z,41.58
2022-10-23T21:14:36.161Z,42.17
2022-10-23T21:17:03.975Z,49.80
2022-10-23T21:19:31.311Z,42.60
2022-10-23T21:21:58.645Z,35.40
2022-10-23T21:24:25.895Z,34.70
2022-10-23T21:26:53.254Z,39.05
2022-10-23T21:29:20.936Z,42.50
2022-10-23T21:32:01.139Z,39.95
2022-10-23T21:34:29.407Z,34.92
2022-10-23T21:37:14.251Z,43.80
2022-10-23T21:39:44.110Z,40.17
2022-10-23T21:42:13.648Z,35.72
2022-10-23T21:44:41.048Z,35.38
2022-10-23T21:47:08.693Z,30.52
2022-10-23T21:49:36.026Z,35.55
2022-10-23T21:52:05.009Z,30.15
2022-10-23T21:54:32.733Z,30.52
2022-10-23T21:57:00.195Z,36.63
2022-10-23T21:59:30.160Z,32.17
2022-10-23T22:01:59.821Z,36.60
2022-10-23T22:04:27.116Z,35.28
2022-10-23T22:06:54.627Z,34.50
2022-10-23T22:09:22.478Z,36.33
2022-10-23T22:11:52.429Z,37.90
2022-10-23T22:14:22.310Z,34.00
2022-10-23T22:16:50.135Z,39.20
2022-10-23T22:19:19.289Z,36.97
2022-10-23T22:21:48.036Z,33.45
2022-10-23T22:24:17.649Z,33.83
2022-10-23T22:26:52.231Z,34.70
2022-10-23T22:29:26.409Z,36.30
2022-10-23T22:31:54.226Z,38.22
2022-10-23T22:34:48.318Z,46.55
2022-10-23T22:37:13.575Z,43.72
2022-10-23T22:39:41.269Z,43.40
2022-10-23T22:42:08.979Z,44.08
2022-10-23T22:44:36.200Z,41.60
2022-10-23T22:47:03.862Z,41.25
2022-10-23T22:49:31.104Z,42.08
2022-10-23T22:51:58.677Z,36.85
2022-10-23T22:54:25.856Z,41.85
2022-10-23T22:56:53.265Z,36.65
2022-10-23T22:59:20.439Z,29.23
2022-10-23T23:01:49.384Z,29.02
2022-10-23T23:07:12.247Z,46.90
2022-10-23T23:09:44.520Z,43.38
2022-10-23T23:12:14.274Z,62.03
2022-10-23T23:14:42.730Z,62.92
2022-10-23T23:17:10.775Z,60.53
2022-10-23T23:19:38.414Z,61.97
2022-10-23T23:22:06.603Z,54.25
2022-10-23T23:24:34.296Z,62.47
2022-10-23T23:27:04.774Z,59.35
2022-10-23T23:29:32.450Z,61.05
2022-10-23T23:31:59.939Z,62.67
2022-10-23T23:34:27.154Z,57.55
2022-10-23T23:36:54.582Z,55.03
2022-10-23T23:39:21.868Z,49.47
2022-10-23T23:41:49.395Z,56.92
2022-10-23T23:44:16.979Z,55.22
2022-10-23T23:46:44.826Z,40.58
2022-10-23T23:49:12.121Z,41.95
2022-10-23T23:51:39.584Z,45.22
2022-10-23T23:54:06.884Z,43.85
2022-10-23T23:56:34.288Z,42.05
2022-10-23T23:59:01.621Z,50.22
